Time;durP1;ratioP1;P1;durP2;ratioP2;P2;SDS_P1;SDS_P2;PMS_P1;PMS_P2;Temp;Humidity;BMP_temperature;BMP_pressure;BME280_temperature;BME280_humidity;BME280_pressure;Samples;Min_cycle;Max_cycle;Signal;HPM_P1;HPM_P2
2022/02/11 00:00:02;;;;;;;4.17;3.80;;;5.30;99.90;;;;;;4993624;28;20392;-86
2022/02/11 00:07:37;;;;;;;5.00;3.78;;;5.30;99.90;;;;;;4994512;28;20491;-86
2022/02/11 00:10:06;;;;;;;3.65;3.38;;;5.30;99.90;;;;;;4993650;28;20058;-86
2022/02/11 00:12:32;;;;;;;4.00;3.60;;;5.20;99.90;;;;;;4992959;28;20469;-86
2022/02/11 00:17:42;;;;;;;5.32;4.25;;;5.30;99.90;;;;;;4993784;28;20047;-85
2022/02/11 00:20:09;;;;;;;4.95;4.40;;;5.10;99.90;;;;;;4994164;28;20065;-85
2022/02/11 00:22:36;;;;;;;4.72;3.75;;;5.10;99.90;;;;;;4992904;28;20411;-85
2022/02/11 00:25:03;;;;;;;4.03;3.65;;;5.00;99.90;;;;;;4994058;28;20050;-85
2022/02/11 00:35:37;;;;;;;4.82;3.17;;;4.50;99.90;;;;;;4963210;28;20058;-83
2022/02/11 00:38:07;;;;;;;3.25;2.90;;;4.40;99.90;;;;;;4993292;28;20054;-83
2022/02/11 00:41:07;;;;;;;5.82;3.35;;;4.40;99.90;;;;;;5008183;28;20063;-83
2022/02/11 01:02:32;;;;;;;2.65;1.60;;;3.80;99.90;;;;;;4993391;28;20120;-83
2022/02/11 01:04:58;;;;;;;2.22;1.80;;;3.80;99.90;;;;;;4991875;28;20057;-83
2022/02/11 01:07:25;;;;;;;1.92;1.77;;;3.70;99.90;;;;;;5008009;28;20451;-83
2022/02/11 01:09:54;;;;;;;2.75;1.80;;;3.80;99.90;;;;;;4992789;28;20073;-83
2022/02/11 01:12:21;;;;;;;1.95;1.65;;;3.80;99.90;;;;;;4992838;28;20054;-83
2022/02/11 01:14:53;;;;;;;2.08;1.60;;;3.80;99.90;;;;;;4991469;28;20052;-83
2022/02/11 01:17:30;;;;;;;1.60;1.50;;;3.70;99.90;;;;;;4992042;28;20060;-83
2022/02/11 01:20:13;;;;;;;1.75;1.65;;;3.70;99.90;;;;;;4991468;28;20050;-83
2022/02/11 01:33:45;;;;;;;1.83;1.35;;;3.60;99.90;;;;;;4992760;28;20046;-83
2022/02/11 01:39:09;;;;;;;2.60;1.73;;;3.50;99.90;;;;;;4992731;28;20081;-83
2022/02/11 01:43:04;;;;;;;2.00;1.90;;;3.60;99.90;;;;;;4992694;28;20089;-83
2022/02/11 01:47:53;;;;;;;1.40;1.30;;;3.60;99.90;;;;;;4992784;28;20133;-83
2022/02/11 01:51:02;;;;;;;0.90;0.73;;;3.50;99.90;;;;;;4992454;28;20042;-83
2022/02/11 01:53:37;;;;;;;0.50;0.50;;;3.50;99.90;;;;;;4992006;28;20633;-83
2022/02/11 01:59:28;;;;;;;0.65;0.63;;;3.30;99.90;;;;;;4992616;28;20062;-84
2022/02/11 02:05:01;;;;;;;0.82;0.50;;;3.40;99.90;;;;;;4992476;28;20055;-84
2022/02/11 02:18:53;;;;;;;0.60;0.60;;;3.00;99.90;;;;;;4996130;28;20088;-83
2022/02/11 02:39:16;;;;;;;1.63;0.70;;;2.90;99.90;;;;;;4995825;28;20418;-84
2022/02/11 02:50:19;;;;;;;0.77;0.77;;;3.00;99.90;;;;;;4995314;28;20054;-83
2022/02/11 02:58:27;;;;;;;1.70;1.60;;;2.70;99.90;;;;;;4995498;28;20054;-83
2022/02/11 03:15:18;;;;;;;2.38;1.60;;;2.20;99.90;;;;;;4994548;28;20049;-84
2022/02/11 03:53:59;;;;;;;1.50;1.40;;;1.10;99.90;;;;;;4994408;28;20054;-85
2022/02/11 04:55:53;;;;;;;1.60;1.42;;;1.20;99.90;;;;;;4992806;28;20138;-84
2022/02/11 05:01:05;;;;;;;2.10;1.20;;;1.30;99.90;;;;;;4993219;28;20060;-84
2022/02/11 05:03:32;;;;;;;1.23;1.10;;;1.30;99.90;;;;;;4993089;28;20395;-84
2022/02/11 05:05:59;;;;;;;0.90;0.90;;;1.40;99.90;;;;;;4993089;28;20074;-84
2022/02/11 05:08:26;;;;;;;1.42;1.10;;;1.40;99.90;;;;;;4993310;28;20050;-84
2022/02/11 05:10:56;;;;;;;0.90;0.90;;;1.40;99.90;;;;;;5007881;28;20081;-84
2022/02/11 05:13:23;;;;;;;1.38;1.20;;;1.50;99.90;;;;;;4991484;28;20056;-84
2022/02/11 05:15:50;;;;;;;1.27;1.17;;;1.60;99.90;;;;;;4991707;28;20046;-84
2022/02/11 05:18:17;;;;;;;1.38;1.30;;;1.60;99.90;;;;;;4991782;28;20058;-85
2022/02/11 05:20:44;;;;;;;3.20;1.30;;;1.70;99.90;;;;;;4992073;28;20482;-84
2022/02/11 05:23:15;;;;;;;0.75;0.75;;;1.70;99.90;;;;;;4991982;28;20046;-85
2022/02/11 05:25:42;;;;;;;1.25;0.70;;;1.70;99.90;;;;;;4991833;28;20506;-84
2022/02/11 05:28:12;;;;;;;1.20;0.88;;;1.70;99.90;;;;;;4991962;28;20126;-84
2022/02/11 05:30:40;;;;;;;61.85;4.40;;;1.60;99.90;;;;;;4992654;28;20050;-84
2022/02/11 05:33:08;;;;;;;12.77;1.50;;;1.60;99.90;;;;;;4991917;28;20051;-85
2022/02/11 05:35:38;;;;;;;5.97;1.10;;;1.70;99.90;;;;;;4992764;28;20142;-85
2022/02/11 05:38:05;;;;;;;5.88;0.75;;;1.70;99.90;;;;;;4991967;28;20054;-85
2022/02/11 05:40:32;;;;;;;6.10;1.20;;;1.70;99.90;;;;;;5007539;28;20498;-85
2022/02/11 05:42:59;;;;;;;4.88;0.80;;;1.80;99.90;;;;;;4993010;28;20060;-85
2022/02/11 05:45:26;;;;;;;9.70;1.65;;;1.70;99.90;;;;;;4993647;28;20057;-85
2022/02/11 05:47:52;;;;;;;6.25;2.90;;;1.70;99.90;;;;;;4996880;28;20476;-85
2022/02/11 05:50:19;;;;;;;11.38;2.30;;;1.70;99.90;;;;;;4995399;28;20468;-85
2022/02/11 05:53:00;;;;;;;4.45;0.88;;;1.70;99.90;;;;;;4996447;28;20134;-84
2022/02/11 05:55:27;;;;;;;2.33;0.60;;;1.70;99.90;;;;;;4995491;28;20431;-85
2022/02/11 05:57:54;;;;;;;12.55;3.22;;;1.70;99.90;;;;;;4995510;28;20042;-85
2022/02/11 06:00:21;;;;;;;4.25;1.25;;;1.70;99.90;;;;;;4995550;28;20442;-83
2022/02/11 06:02:48;;;;;;;5.30;1.50;;;1.60;99.90;;;;;;5011181;28;20052;-85
2022/02/11 06:05:16;;;;;;;5.35;1.60;;;1.60;99.90;;;;;;4995995;28;20547;-85
2022/02/11 06:07:44;;;;;;;5.35;1.55;;;1.50;99.90;;;;;;4996118;28;20097;-84
2022/02/11 06:10:11;;;;;;;6.78;2.50;;;1.60;99.90;;;;;;4995430;28;20054;-85
2022/02/11 06:12:38;;;;;;;1.98;1.13;;;1.50;99.90;;;;;;4995571;28;20054;-85
2022/02/11 06:15:07;;;;;;;3.70;0.85;;;1.50;99.90;;;;;;4996112;28;20065;-84
2022/02/11 06:17:34;;;;;;;2.35;0.90;;;1.50;99.90;;;;;;4994745;28;20130;-85
2022/02/11 06:20:01;;;;;;;1.65;1.08;;;1.50;99.90;;;;;;4994754;28;20137;-84
2022/02/11 06:22:29;;;;;;;3.17;1.25;;;1.50;99.90;;;;;;4994781;28;20112;-84
2022/02/11 06:24:56;;;;;;;7.05;1.05;;;1.40;99.90;;;;;;4996051;28;20046;-85
2022/02/11 06:27:25;;;;;;;7.10;2.05;;;1.50;99.90;;;;;;4996035;28;20136;-85
2022/02/11 06:29:52;;;;;;;11.45;5.90;;;1.50;99.90;;;;;;4995936;28;20562;-84
2022/02/11 06:32:19;;;;;;;2.83;2.00;;;1.50;99.90;;;;;;5010920;28;20141;-85
2022/02/11 06:34:46;;;;;;;3.72;1.77;;;1.50;99.90;;;;;;5010601;28;20046;-84
2022/02/11 06:37:12;;;;;;;5.43;3.00;;;1.40;99.90;;;;;;4994851;28;20057;-85
2022/02/11 06:39:39;;;;;;;3.65;1.40;;;1.30;99.90;;;;;;4995797;28;20056;-85
2022/02/11 06:42:06;;;;;;;0.93;0.70;;;1.00;99.90;;;;;;4996082;28;20054;-85
2022/02/11 06:44:33;;;;;;;2.80;0.70;;;0.90;99.90;;;;;;5011129;28;20129;-85
2022/02/11 06:47:00;;;;;;;2.17;1.10;;;0.70;99.90;;;;;;4994740;28;20053;-84
2022/02/11 06:49:28;;;;;;;3.35;1.45;;;0.60;99.90;;;;;;4995364;28;20046;-84
2022/02/11 06:51:57;;;;;;;3.50;1.10;;;0.60;99.90;;;;;;4994622;28;20061;-85
2022/02/11 06:54:24;;;;;;;3.38;1.42;;;0.60;99.90;;;;;;4995346;28;20061;-84
2022/02/11 06:56:50;;;;;;;4.72;1.63;;;0.60;99.90;;;;;;4995626;28;20050;-85
2022/02/11 06:59:17;;;;;;;4.38;1.50;;;0.60;99.90;;;;;;4994327;28;20060;-85
2022/02/11 07:01:44;;;;;;;4.88;1.35;;;0.60;99.90;;;;;;4995268;28;20161;-85
2022/02/11 07:04:13;;;;;;;3.63;1.63;;;0.60;99.90;;;;;;4995465;28;20050;-85
2022/02/11 07:06:40;;;;;;;4.28;1.95;;;0.50;99.90;;;;;;4995257;28;20053;-84
2022/02/11 07:09:06;;;;;;;4.43;2.35;;;0.50;99.90;;;;;;5011055;28;20050;-85
2022/02/11 07:11:33;;;;;;;6.70;1.98;;;0.60;99.90;;;;;;4995817;28;20046;-85
2022/02/11 07:14:00;;;;;;;8.85;2.85;;;0.60;99.90;;;;;;4993737;28;20054;-85
2022/02/11 07:16:27;;;;;;;6.97;2.33;;;0.70;99.90;;;;;;4995505;28;20057;-85
2022/02/11 07:18:54;;;;;;;3.45;2.95;;;0.80;99.90;;;;;;5014999;28;20077;-85
2022/02/11 07:21:21;;;;;;;3.63;2.80;;;0.90;99.90;;;;;;5017071;28;20045;-85
2022/02/11 07:23:48;;;;;;;5.72;2.33;;;1.00;99.90;;;;;;5017160;28;20049;-85
2022/02/11 07:26:15;;;;;;;3.25;2.25;;;1.00;99.90;;;;;;5017471;28;20486;-85
2022/02/11 07:28:42;;;;;;;5.03;2.78;;;0.90;99.90;;;;;;5017089;28;20050;-85
2022/02/11 07:31:09;;;;;;;7.40;3.15;;;0.70;99.90;;;;;;5023152;28;20062;-85
2022/02/11 07:33:36;;;;;;;6.80;3.30;;;0.60;99.90;;;;;;5012311;28;20161;-85
2022/02/11 07:36:03;;;;;;;5.85;3.78;;;0.70;99.90;;;;;;5013007;28;20169;-85
2022/02/11 07:38:31;;;;;;;4.35;3.45;;;0.60;99.90;;;;;;5013495;28;20046;-85
2022/02/11 07:40:57;;;;;;;7.25;5.28;;;0.60;99.90;;;;;;5013573;28;20057;-84
2022/02/11 07:43:24;;;;;;;16.08;8.32;;;0.70;99.90;;;;;;5013122;28;20132;-85
2022/02/11 07:46:09;;;;;;;8.18;6.30;;;0.80;99.90;;;;;;5013097;28;20056;-85
2022/02/11 07:48:36;;;;;;;10.13;6.93;;;1.00;99.90;;;;;;5013188;28;20129;-85
2022/02/11 07:51:02;;;;;;;12.27;8.85;;;1.00;99.90;;;;;;5022439;28;20124;-85
2022/02/11 07:53:29;;;;;;;15.27;10.38;;;1.10;99.90;;;;;;5034117;28;20051;-85
2022/02/11 07:55:56;;;;;;;10.43;7.97;;;1.40;99.90;;;;;;5033973;28;20136;-85
2022/02/11 07:58:26;;;;;;;16.60;10.98;;;1.30;99.90;;;;;;5016386;28;20050;-85
2022/02/11 08:00:54;;;;;;;15.80;11.45;;;1.40;99.90;;;;;;5016275;28;20092;-85
2022/02/11 08:03:24;;;;;;;17.42;9.45;;;1.40;99.90;;;;;;5017092;28;20049;-84
2022/02/11 08:05:54;;;;;;;50.92;25.70;;;1.40;99.90;;;;;;5017092;28;20442;-85
2022/02/11 08:08:23;;;;;;;34.67;17.90;;;1.40;99.90;;;;;;5015702;28;20504;-84
2022/02/11 08:10:49;;;;;;;29.50;11.13;;;1.50;99.90;;;;;;5033240;28;20045;-84
2022/02/11 08:13:16;;;;;;;8.80;3.95;;;2.10;99.90;;;;;;5015295;28;20045;-84
2022/02/11 08:15:43;;;;;;;7.65;2.55;;;2.30;99.90;;;;;;5016236;28;20059;-84
2022/02/11 08:18:10;;;;;;;4.88;2.78;;;2.40;99.90;;;;;;5016261;28;20071;-84
2022/02/11 08:20:56;;;;;;;2.53;2.08;;;2.60;99.90;;;;;;5019137;28;20057;-85
2022/02/11 08:23:25;;;;;;;2.60;1.77;;;2.90;99.90;;;;;;5016589;28;20081;-85
2022/02/11 08:25:52;;;;;;;4.50;1.60;;;2.90;99.90;;;;;;5034262;28;20049;-84
2022/02/11 08:28:19;;;;;;;2.90;1.48;;;2.90;99.90;;;;;;5033690;28;20045;-85
2022/02/11 08:30:49;;;;;;;2.95;1.60;;;2.90;99.90;;;;;;5016761;28;20414;-85
2022/02/11 08:33:21;;;;;;;5.28;1.83;;;3.10;99.90;;;;;;5033804;28;20077;-85
2022/02/11 08:35:53;;;;;;;7.03;1.70;;;3.10;99.90;;;;;;5033237;28;20433;-85
2022/02/11 08:38:21;;;;;;;3.55;1.30;;;3.10;99.90;;;;;;5033600;28;20409;-85
2022/02/11 08:40:48;;;;;;;1.77;1.33;;;3.30;99.90;;;;;;5033543;28;20470;-88
2022/02/11 08:43:15;;;;;;;5.78;2.40;;;3.90;99.90;;;;;;5016163;28;20041;-85
2022/02/11 08:45:43;;;;;;;2.85;1.27;;;4.50;99.90;;;;;;5015816;28;20064;-85
2022/02/11 08:48:12;;;;;;;7.18;1.65;;;5.40;99.90;;;;;;5016184;28;20056;-85
2022/02/11 08:50:41;;;;;;;4.97;1.90;;;5.30;99.90;;;;;;5033510;28;20046;-85
2022/02/11 08:53:30;;;;;;;5.40;1.90;;;5.00;99.90;;;;;;5033394;28;20062;-87
2022/02/11 08:55:57;;;;;;;4.20;2.00;;;4.70;99.90;;;;;;5033209;28;20478;-86
2022/02/11 08:58:24;;;;;;;6.65;2.47;;;4.70;99.90;;;;;;5032827;28;20045;-86
2022/02/11 09:00:51;;;;;;;6.68;1.90;;;4.60;99.90;;;;;;5033250;28;20132;-86
2022/02/11 09:03:24;;;;;;;5.97;2.08;;;5.20;99.90;;;;;;5016741;28;20085;-87
2022/02/11 09:05:50;;;;;;;4.10;2.13;;;5.50;99.90;;;;;;5032819;28;20482;-86
2022/02/11 09:08:17;;;;;;;4.55;2.05;;;5.90;99.90;;;;;;5015630;28;20049;-85
2022/02/11 09:10:48;;;;;;;4.38;1.77;;;5.70;99.90;;;;;;5032858;28;20432;-85
2022/02/11 09:13:16;;;;;;;5.72;2.03;;;5.50;99.90;;;;;;5033221;28;20126;-86
2022/02/11 09:15:45;;;;;;;6.28;1.92;;;5.20;99.90;;;;;;5032960;28;20053;-84
2022/02/11 09:18:12;;;;;;;6.28;2.38;;;4.90;99.90;;;;;;5025486;28;20060;-86
2022/02/11 09:20:40;;;;;;;4.28;2.28;;;4.60;99.90;;;;;;5054470;28;20095;-86
2022/02/11 09:23:07;;;;;;;4.50;2.30;;;4.20;99.90;;;;;;5056154;28;20080;-85
2022/02/11 09:25:34;;;;;;;6.95;2.67;;;4.10;99.90;;;;;;5055464;28;20409;-87
2022/02/11 09:28:01;;;;;;;6.60;2.42;;;4.00;99.90;;;;;;5055985;28;20055;-86
2022/02/11 09:30:28;;;;;;;6.30;2.65;;;3.80;99.90;;;;;;5055874;28;20049;-85
2022/02/11 09:32:57;;;;;;;2.70;2.47;;;3.80;99.90;;;;;;5055928;28;20139;-86
2022/02/11 09:35:24;;;;;;;5.22;2.17;;;3.80;99.90;;;;;;5055887;28;20511;-86
2022/02/11 09:37:51;;;;;;;2.47;2.20;;;3.70;99.90;;;;;;5058299;28;20131;-86
2022/02/11 09:40:19;;;;;;;14.48;3.08;;;3.70;99.90;;;;;;5057347;28;20048;-85
2022/02/11 09:42:47;;;;;;;10.05;3.15;;;3.80;99.90;;;;;;5055783;28;20049;-86
2022/02/11 09:45:17;;;;;;;6.35;2.47;;;3.90;99.90;;;;;;5055860;28;20052;-86
2022/02/11 09:47:44;;;;;;;5.90;2.38;;;3.90;99.90;;;;;;5055947;28;20095;-86
2022/02/11 09:50:10;;;;;;;9.82;2.90;;;4.10;99.90;;;;;;5055859;28;20041;-85
2022/02/11 09:52:41;;;;;;;6.45;2.40;;;4.20;99.90;;;;;;5055591;28;20497;-86
2022/02/11 09:57:55;;;;;;;7.50;2.80;;;4.40;99.90;;;;;;5056798;28;20077;-86
2022/02/11 10:00:25;;;;;;;3.55;2.00;;;4.60;99.90;;;;;;5055644;28;20051;-86
2022/02/11 10:02:53;;;;;;;6.00;2.50;;;4.60;99.90;;;;;;5054908;28;20497;-85
2022/02/11 10:05:30;;;;;;;10.25;2.10;;;4.80;99.90;;;;;;5056499;28;20507;-86
2022/02/11 10:07:59;;;;;;;4.85;2.20;;;5.00;99.90;;;;;;5055554;28;20493;-85
2022/02/11 10:10:42;;;;;;;5.28;2.00;;;5.10;99.90;;;;;;5056465;28;20397;-86
2022/02/11 10:13:18;;;;;;;3.75;2.15;;;5.20;99.90;;;;;;5056415;28;20049;-86
2022/02/11 10:15:55;;;;;;;3.72;1.70;;;5.90;99.90;;;;;;5054923;28;20045;-86
2022/02/11 10:18:30;;;;;;;2.13;1.75;;;6.20;99.90;;;;;;5055264;28;20055;-86
2022/02/11 10:21:00;;;;;;;;;;;6.60;99.90;;;;;;5056786;28;20051;-87
2022/02/11 10:23:28;;;;;;;4.80;1.65;;;6.50;99.90;;;;;;5056059;28;19920;-86
2022/02/11 10:26:07;;;;;;;1.77;1.67;;;7.30;99.90;;;;;;5055741;28;20049;-86
2022/02/11 10:28:39;;;;;;;3.17;1.33;;;8.80;99.90;;;;;;5054620;28;20049;-86
2022/02/11 10:31:10;;;;;;;1.55;1.20;;;9.80;99.90;;;;;;5055583;28;20519;-86
2022/02/11 10:33:57;;;;;;;2.90;1.33;;;10.80;99.90;;;;;;5054949;28;20493;-86
2022/02/11 10:36:27;;;;;;;2.13;1.30;;;10.80;99.90;;;;;;5054808;28;20049;-86
2022/02/11 10:39:19;;;;;;;3.10;1.30;;;10.70;99.90;;;;;;5055799;28;20045;-86
2022/02/11 10:41:49;;;;;;;;;;;9.90;99.90;;;;;;5056102;28;20045;-88
2022/02/11 10:44:18;;;;;;;0.88;0.80;;;9.10;99.90;;;;;;5055578;28;19928;-86
2022/02/11 10:46:54;;;;;;;2.80;1.17;;;7.90;99.90;;;;;;5055598;28;20045;-86
2022/02/11 10:49:33;;;;;;;1.35;1.17;;;7.00;99.90;;;;;;5055958;28;20053;-87
2022/02/11 10:52:19;;;;;;;3.22;1.35;;;6.70;99.90;;;;;;5045406;28;20048;-87
2022/02/11 10:54:49;;;;;;;3.60;1.38;;;6.10;99.90;;;;;;5054423;28;20132;-86
2022/02/11 10:57:18;;;;;;;1.88;1.20;;;5.80;99.90;;;;;;5038109;28;20056;-86
2022/02/11 10:59:47;;;;;;;2.08;1.70;;;5.60;99.90;;;;;;5055474;28;20127;-86
2022/02/11 11:02:17;;;;;;;2.42;1.70;;;5.50;99.90;;;;;;5037786;28;20071;-87
2022/02/11 11:04:45;;;;;;;1.40;1.23;;;5.40;99.90;;;;;;5038117;28;20057;-86
2022/02/11 11:07:15;;;;;;;2.47;1.50;;;5.40;99.90;;;;;;5055545;28;20056;-86
2022/02/11 11:09:59;;;;;;;1.73;1.25;;;5.40;99.90;;;;;;5055504;28;20136;-87
2022/02/11 11:12:32;;;;;;;3.22;1.60;;;5.40;99.90;;;;;;5037995;28;20408;-86
2022/02/11 11:15:01;;;;;;;2.35;1.23;;;5.30;99.90;;;;;;5054603;28;20045;-86
2022/02/11 11:17:31;;;;;;;2.70;1.25;;;5.40;99.90;;;;;;5037053;28;20045;-86
2022/02/11 11:19:59;;;;;;;1.85;1.15;;;5.40;99.90;;;;;;5037626;28;20090;-88
2022/02/11 11:22:31;;;;;;;2.38;1.15;;;5.60;99.90;;;;;;5055135;28;20049;-85
2022/02/11 11:25:03;;;;;;;1.35;1.00;;;5.60;99.90;;;;;;5037488;28;20056;-87
2022/02/11 11:27:40;;;;;;;1.80;1.00;;;5.70;99.90;;;;;;5055004;28;20055;-86
2022/02/11 11:30:27;;;;;;;1.98;1.10;;;5.80;99.90;;;;;;5037467;28;20055;-86
2022/02/11 11:33:06;;;;;;;5.65;1.30;;;5.80;99.90;;;;;;5037361;28;20068;-87
2022/02/11 11:36:01;;;;;;;2.30;1.02;;;5.80;99.90;;;;;;5037141;28;20517;-86
2022/02/11 11:38:43;;;;;;;2.03;1.00;;;5.70;99.90;;;;;;5034470;28;20481;-85
2022/02/11 11:41:13;;;;;;;4.38;2.13;;;5.60;99.90;;;;;;5037182;28;20140;-85
2022/02/11 11:43:49;;;;;;;2.08;1.50;;;5.70;99.90;;;;;;5036072;28;20076;-87
2022/02/11 11:46:16;;;;;;;2.83;1.40;;;5.90;99.90;;;;;;5037316;28;20049;-86
2022/02/11 11:48:54;;;;;;;9.10;2.10;;;5.70;99.90;;;;;;5054631;28;20137;-85
2022/02/11 11:51:22;;;;;;;4.50;1.30;;;5.80;99.90;;;;;;5036756;28;20049;-86
2022/02/11 11:53:50;;;;;;;2.58;1.17;;;5.70;99.90;;;;;;5054472;28;20091;-86
2022/02/11 11:56:36;;;;;;;2.55;1.30;;;5.70;99.90;;;;;;5036369;28;20059;-85
2022/02/11 11:59:16;;;;;;;4.15;0.93;;;6.00;99.90;;;;;;5036771;28;20052;-86
2022/02/11 12:02:04;;;;;;;2.83;1.40;;;6.30;99.90;;;;;;5036325;28;20052;-86
2022/02/11 12:04:38;;;;;;;2.97;1.30;;;6.60;99.90;;;;;;5036199;28;20049;-87
2022/02/11 12:07:07;;;;;;;2.63;1.15;;;6.70;99.90;;;;;;5038908;28;20136;-87
2022/02/11 12:09:35;;;;;;;2.58;1.00;;;6.70;99.90;;;;;;5054210;28;20515;-86
2022/02/11 12:12:09;;;;;;;5.68;1.30;;;6.50;99.90;;;;;;5053829;28;20049;-86
2022/02/11 12:14:38;;;;;;;2.92;1.00;;;6.40;99.90;;;;;;5036133;28;20511;-86
2022/02/11 12:17:08;;;;;;;1.80;1.10;;;6.40;99.90;;;;;;5053767;28;20136;-87
2022/02/11 12:19:36;;;;;;;2.85;1.00;;;6.30;99.90;;;;;;5036485;28;20064;-86
2022/02/11 12:22:06;;;;;;;4.63;1.27;;;6.30;99.90;;;;;;5036705;28;20053;-87
2022/02/11 12:27:30;;;;;;;3.83;0.93;;;6.60;99.90;;;;;;5053759;28;20060;-85
2022/02/11 12:29:58;;;;;;;6.93;1.30;;;6.80;99.90;;;;;;5053922;28;20131;-85
2022/02/11 12:32:37;;;;;;;1.02;0.88;;;6.80;99.90;;;;;;5053676;28;20485;-87
2022/02/11 12:35:05;;;;;;;1.75;0.63;;;6.80;99.90;;;;;;5034613;28;20079;-86
2022/02/11 12:37:32;;;;;;;3.70;0.90;;;6.80;99.90;;;;;;5035709;28;20478;-87
2022/02/11 12:40:48;;;;;;;1.88;0.63;;;6.80;99.90;;;;;;5053734;28;20409;-87
2022/02/11 12:43:16;;;;;;;6.93;1.52;;;6.80;99.90;;;;;;5032269;28;20128;-86
2022/02/11 12:45:44;;;;;;;3.40;0.80;;;6.70;99.90;;;;;;5053103;28;20099;-87
2022/02/11 12:48:14;;;;;;;1.90;1.33;;;6.50;99.90;;;;;;5053562;28;20059;-85
2022/02/11 12:50:46;;;;;;;3.00;0.90;;;6.40;99.90;;;;;;5053619;28;20128;-86
2022/02/11 12:53:17;;;;;;;3.30;0.80;;;6.30;99.90;;;;;;5035918;28;20055;-85
2022/02/11 12:55:49;;;;;;;0.75;0.50;;;6.40;99.90;;;;;;5035060;28;20139;-85
2022/02/11 12:58:19;;;;;;;2.25;0.60;;;6.50;99.90;;;;;;5052998;28;20509;-86
2022/02/11 13:00:48;;;;;;;1.15;0.63;;;6.60;99.90;;;;;;5051407;28;20067;-86
2022/02/11 13:03:18;;;;;;;2.60;0.50;;;6.90;99.90;;;;;;5035071;28;20473;-85
2022/02/11 13:05:51;;;;;;;0.73;0.55;;;6.90;99.90;;;;;;5034650;28;20135;-86
2022/02/11 13:08:24;;;;;;;0.40;0.40;;;7.00;99.90;;;;;;5048531;28;20084;-86
2022/02/11 13:10:58;;;;;;;0.75;0.55;;;6.90;99.90;;;;;;5052396;28;20084;-86
2022/02/11 13:13:25;;;;;;;1.08;0.70;;;6.60;99.90;;;;;;5052564;28;20132;-87
2022/02/11 13:15:56;;;;;;;0.55;0.55;;;6.30;99.90;;;;;;5052351;28;20060;-86
2022/02/11 13:18:25;;;;;;;1.83;0.80;;;6.00;99.90;;;;;;5023613;28;20061;-86
2022/02/11 13:20:54;;;;;;;0.95;0.50;;;5.90;99.90;;;;;;5014078;28;20046;-87
2022/02/11 13:23:23;;;;;;;0.90;0.82;;;5.60;99.90;;;;;;5012810;28;20406;-86
2022/02/11 13:25:51;;;;;;;2.47;0.70;;;5.30;99.90;;;;;;5011466;28;20431;-87
2022/02/11 13:28:19;;;;;;;0.50;0.50;;;5.00;99.90;;;;;;5012746;28;20116;-86
2022/02/11 13:30:54;;;;;;;0.65;0.65;;;4.90;99.90;;;;;;5012403;28;20501;-86
2022/02/11 13:33:32;;;;;;;0.73;0.60;;;4.90;99.90;;;;;;5012354;28;20425;-86
2022/02/11 13:36:01;;;;;;;0.60;0.50;;;5.00;99.90;;;;;;5011118;28;20077;-86
2022/02/11 13:38:36;;;;;;;0.73;0.43;;;5.00;99.90;;;;;;5012494;28;20054;-85
2022/02/11 13:41:11;;;;;;;0.60;0.60;;;5.00;99.90;;;;;;5012855;28;20053;-86
2022/02/11 13:44:10;;;;;;;2.33;0.57;;;5.00;99.90;;;;;;5011095;28;20129;-86
2022/02/11 13:46:56;;;;;;;0.40;0.40;;;5.10;99.90;;;;;;5006370;28;20461;-85
2022/02/11 13:49:23;;;;;;;2.75;0.70;;;5.10;99.90;;;;;;5011296;28;20061;-86
2022/02/11 13:55:01;;;;;;;1.98;0.98;;;5.10;99.90;;;;;;5012099;28;20064;-87
2022/02/11 13:57:28;;;;;;;2.83;2.42;;;5.20;99.90;;;;;;5011405;28;20053;-85
2022/02/11 13:59:54;;;;;;;1.30;0.90;;;5.40;99.90;;;;;;5011594;28;20129;-85
2022/02/11 14:02:27;;;;;;;1.38;0.50;;;5.60;99.90;;;;;;5012469;28;20054;-86
2022/02/11 14:05:02;;;;;;;1.08;0.75;;;5.60;99.90;;;;;;5013949;28;20126;-86
2022/02/11 14:07:30;;;;;;;0.40;0.40;;;5.50;99.90;;;;;;5017260;28;20095;-86
2022/02/11 14:09:57;;;;;;;1.05;0.50;;;5.50;99.90;;;;;;5018447;28;20103;-86
2022/02/11 14:12:23;;;;;;;1.00;0.90;;;5.70;99.90;;;;;;5035900;28;20140;-87
2022/02/11 14:14:54;;;;;;;1.90;0.47;;;5.80;99.90;;;;;;5017885;28;20049;-86
2022/02/11 14:17:21;;;;;;;1.73;0.70;;;5.90;99.90;;;;;;5017755;28;20053;-88
2022/02/11 14:19:48;;;;;;;1.35;0.73;;;6.10;99.90;;;;;;5017851;28;20063;-85
2022/02/11 14:22:16;;;;;;;0.50;0.50;;;6.30;99.90;;;;;;5035739;28;20072;-86
2022/02/11 14:24:44;;;;;;;1.55;0.32;;;6.40;99.90;;;;;;5034083;28;20057;-86
2022/02/11 14:27:11;;;;;;;1.85;0.60;;;6.30;99.90;;;;;;5014316;28;20092;-88
2022/02/11 14:29:38;;;;;;;1.23;0.60;;;6.10;99.90;;;;;;5014510;28;20056;-87
2022/02/11 14:32:05;;;;;;;2.15;0.70;;;5.80;99.90;;;;;;5015425;28;20053;-87
2022/02/11 14:34:32;;;;;;;1.90;0.38;;;5.50;99.90;;;;;;5017192;28;20050;-88
2022/02/11 14:36:58;;;;;;;0.82;0.40;;;5.30;99.90;;;;;;5015978;28;20049;-88
2022/02/11 14:39:25;;;;;;;2.40;0.85;;;5.00;99.90;;;;;;5015307;28;20085;-87
2022/02/11 14:41:55;;;;;;;1.40;1.30;;;4.80;99.90;;;;;;4997265;28;20050;-86
2022/02/11 14:44:29;;;;;;;1.65;1.17;;;4.70;99.90;;;;;;5014171;28;20062;-86
2022/02/11 14:46:58;;;;;;;0.90;0.70;;;4.60;99.90;;;;;;5015528;28;20060;-87
2022/02/11 14:49:25;;;;;;;1.60;0.50;;;4.50;99.90;;;;;;5014250;28;20124;-89
2022/02/11 14:52:07;;;;;;;0.40;0.40;;;4.50;99.90;;;;;;5013979;28;20417;-87
2022/02/11 14:54:35;;;;;;;2.53;0.90;;;4.40;99.90;;;;;;5013773;28;20088;-86
2022/02/11 14:57:07;;;;;;;2.45;0.70;;;4.30;99.90;;;;;;5014727;28;20052;-86
2022/02/11 14:59:34;;;;;;;1.13;0.80;;;4.30;99.90;;;;;;5013910;28;20088;-86
2022/02/11 15:02:02;;;;;;;2.88;0.90;;;4.20;99.90;;;;;;5014873;28;20052;-86
2022/02/11 15:04:28;;;;;;;2.33;0.57;;;4.10;99.90;;;;;;5014338;28;20050;-85
2022/02/11 15:06:57;;;;;;;1.50;0.70;;;4.00;99.90;;;;;;5013600;28;20132;-85
2022/02/11 15:09:24;;;;;;;4.05;1.42;;;4.00;99.90;;;;;;5014174;28;20064;-85
2022/02/11 15:11:51;;;;;;;0.88;0.80;;;4.00;99.90;;;;;;5013370;28;20056;-85
2022/02/11 15:14:21;;;;;;;2.78;1.42;;;3.90;99.90;;;;;;5014336;28;20052;-86
2022/02/11 15:16:49;;;;;;;1.27;0.63;;;4.00;99.90;;;;;;4996688;28;20053;-85
2022/02/11 15:19:16;;;;;;;4.80;2.47;;;3.90;99.90;;;;;;5012932;28;20414;-85
2022/02/11 15:21:44;;;;;;;2.97;1.00;;;3.90;99.90;;;;;;5013052;28;20141;-86
2022/02/11 15:24:11;;;;;;;2.25;1.10;;;4.00;99.90;;;;;;4996878;28;20061;-85
2022/02/11 15:26:39;;;;;;;2.33;1.45;;;3.90;99.90;;;;;;5014014;28;20054;-87
2022/02/11 15:29:05;;;;;;;0.73;0.70;;;3.90;99.90;;;;;;5012971;28;20505;-85
2022/02/11 15:31:32;;;;;;;2.75;0.80;;;3.90;99.90;;;;;;4996167;28;20050;-85
2022/02/11 15:33:59;;;;;;;0.50;0.50;;;3.90;99.90;;;;;;5013223;28;20392;-85
2022/02/11 15:36:26;;;;;;;0.82;0.45;;;3.90;99.90;;;;;;5014417;28;20474;-86
2022/02/11 15:38:53;;;;;;;3.70;0.45;;;3.90;99.90;;;;;;5013262;28;20052;-86
2022/02/11 15:41:20;;;;;;;2.15;0.75;;;3.80;99.90;;;;;;5012932;28;20212;-87
2022/02/11 15:43:47;;;;;;;2.88;0.70;;;3.80;99.90;;;;;;5013149;28;20085;-86
2022/02/11 15:46:14;;;;;;;1.38;0.60;;;3.90;99.90;;;;;;5012984;28;20081;-86
2022/02/11 15:48:41;;;;;;;1.08;0.90;;;3.90;99.90;;;;;;5012970;28;20597;-86
2022/02/11 15:51:11;;;;;;;2.70;0.60;;;3.90;99.90;;;;;;5012937;28;20058;-86
2022/02/11 15:53:38;;;;;;;4.93;2.15;;;3.90;99.90;;;;;;5012746;28;20410;-86
2022/02/11 15:56:06;;;;;;;3.95;1.13;;;4.00;99.90;;;;;;5013899;28;20053;-86
2022/02/11 15:58:33;;;;;;;3.70;1.65;;;3.90;99.90;;;;;;5013950;28;20056;-86
2022/02/11 16:01:00;;;;;;;1.90;1.60;;;3.90;99.90;;;;;;5013852;28;20050;-86
2022/02/11 16:03:27;;;;;;;1.00;1.00;;;3.90;99.90;;;;;;5013400;28;20490;-86
2022/02/11 16:06:00;;;;;;;2.97;1.50;;;3.90;99.90;;;;;;4997598;28;20426;-86
2022/02/11 16:08:26;;;;;;;4.30;1.30;;;3.80;99.90;;;;;;5012693;28;20046;-87
2022/02/11 16:10:53;;;;;;;0.93;0.60;;;3.90;99.90;;;;;;5013003;28;20050;-86
2022/02/11 16:13:20;;;;;;;0.80;0.80;;;3.90;99.90;;;;;;5013846;28;20042;-86
2022/02/11 16:15:47;;;;;;;2.45;1.30;;;3.80;99.90;;;;;;5012041;28;20477;-86
2022/02/11 16:18:16;;;;;;;2.10;0.95;;;3.90;99.90;;;;;;4999552;28;20375;-85
2022/02/11 16:20:46;;;;;;;0.73;0.60;;;3.90;99.90;;;;;;5012397;28;20047;-88
2022/02/11 16:23:18;;;;;;;0.60;0.60;;;3.90;99.90;;;;;;5012810;28;20573;-86
2022/02/11 16:25:45;;;;;;;1.90;0.68;;;4.00;99.90;;;;;;5012231;28;20413;-86
2022/02/11 16:28:15;;;;;;;2.10;0.70;;;4.00;99.90;;;;;;5012237;28;20109;-85
2022/02/11 16:30:44;;;;;;;1.65;0.63;;;4.10;99.90;;;;;;5011443;28;20106;-85
2022/02/11 16:33:11;;;;;;;1.00;0.45;;;4.00;99.90;;;;;;5011727;28;20517;-86
2022/02/11 16:35:40;;;;;;;0.57;0.57;;;4.10;99.90;;;;;;5011897;28;20046;-86
2022/02/11 16:38:10;;;;;;;0.77;0.60;;;4.00;99.90;;;;;;5012530;28;20054;-86
2022/02/11 16:40:37;;;;;;;1.50;0.50;;;4.10;99.90;;;;;;5012002;28;20042;-87
2022/02/11 16:43:04;;;;;;;2.70;0.50;;;4.10;99.90;;;;;;5012856;28;20443;-86
2022/02/11 16:45:33;;;;;;;1.15;0.40;;;4.10;99.90;;;;;;5012726;28;20048;-86
2022/02/11 16:48:03;;;;;;;0.77;0.50;;;4.10;99.90;;;;;;5013209;28;20511;-88
2022/02/11 16:50:31;;;;;;;1.35;0.30;;;4.10;99.90;;;;;;5013322;28;20050;-86
2022/02/11 16:52:58;;;;;;;1.25;0.55;;;4.10;99.90;;;;;;5013241;28;20494;-86
2022/02/11 16:55:25;;;;;;;2.25;0.77;;;4.10;99.90;;;;;;5014923;28;20049;-86